createdAt,value
2016-04-12T00:00:50.722Z,0
2016-04-12T00:02:03.443Z,0
2016-04-12T00:03:03.462Z,0
2016-04-12T00:04:09.964Z,0
2016-04-12T00:05:16.467Z,0
2016-04-12T00:06:16.500Z,0
2016-04-12T00:07:22.128Z,0
2016-04-12T00:08:23.558Z,0
2016-04-12T00:09:22.364Z,0
2016-04-12T00:09:50.851Z,0
2016-04-12T00:12:06.075Z,0
2016-04-12T00:13:06.265Z,0
2016-04-12T00:14:18.847Z,0
2016-04-12T00:15:06.192Z,0
2016-04-12T00:16:06.195Z,0
2016-04-12T00:17:18.932Z,0
2016-04-12T00:18:07.669Z,0
2016-04-12T00:19:19.094Z,0
2016-04-12T00:20:25.455Z,0
2016-04-12T00:21:06.255Z,0
2016-04-12T00:22:31.980Z,0
2016-04-12T00:23:15.871Z,0
2016-04-12T00:24:41.563Z,0
2016-04-12T00:25:19.844Z,0
2016-04-12T00:27:22.491Z,0
2016-04-12T00:27:54.367Z,0
2016-04-12T00:28:35.215Z,0
2016-04-12T00:29:35.218Z,0
2016-04-12T00:30:35.218Z,0
2016-04-12T00:31:35.243Z,0
2016-04-12T00:32:47.845Z,0
2016-04-12T00:33:35.910Z,0
2016-04-12T00:34:35.319Z,0
2016-04-12T00:35:35.978Z,0
2016-04-12T00:36:35.340Z,0
2016-04-12T00:37:35.984Z,0
2016-04-12T00:38:48.143Z,0
2016-04-12T00:39:48.129Z,0
2016-04-12T00:40:54.632Z,0
2016-04-12T00:41:54.619Z,0
2016-04-12T00:43:01.123Z,0
2016-04-12T00:43:35.469Z,0
2016-04-12T00:44:35.533Z,0
2016-04-12T00:45:35.521Z,0
2016-04-12T00:46:35.633Z,0
2016-04-12T00:47:35.542Z,0
2016-04-12T00:48:35.560Z,0
2016-04-12T00:49:36.173Z,0
2016-04-12T00:50:35.816Z,0
2016-04-12T00:51:35.631Z,0
2016-04-12T00:52:35.618Z,0
2016-04-12T00:53:41.996Z,0
2016-04-12T00:54:35.655Z,0
2016-04-12T00:55:35.814Z,0
2016-04-12T00:56:42.004Z,0
2016-04-12T00:57:42.068Z,0
2016-04-12T00:58:35.744Z,0
2016-04-12T00:59:55.043Z,0
2016-04-12T01:00:35.779Z,0
2016-04-12T01:01:35.783Z,0
2016-04-12T01:02:36.066Z,0
2016-04-12T01:03:35.851Z,0
2016-04-12T01:04:35.946Z,0
2016-04-12T01:05:42.184Z,0
2016-04-12T01:06:36.171Z,0
2016-04-12T01:07:35.909Z,0
2016-04-12T01:08:42.301Z,0
2016-04-12T01:09:35.929Z,0
2016-04-12T01:10:55.182Z,0
2016-04-12T01:11:42.248Z,0
2016-04-12T01:12:36.015Z,0
2016-04-12T01:13:36.017Z,0
2016-04-12T01:14:36.067Z,0
2016-04-12T01:15:42.351Z,0
2016-04-12T01:16:36.073Z,0
2016-04-12T01:17:55.294Z,0
2016-04-12T01:18:42.375Z,0
2016-04-12T01:20:01.816Z,0
2016-04-12T01:20:48.896Z,0
2016-04-12T01:21:36.289Z,0
2016-04-12T01:22:36.183Z,0
2016-04-12T01:23:42.577Z,0
2016-04-12T01:24:36.219Z,0
2016-04-12T01:25:36.238Z,0
2016-04-12T01:26:42.553Z,0
2016-04-12T01:27:37.680Z,0
2016-04-12T01:28:55.480Z,0
2016-04-12T01:29:39.343Z,0
2016-04-12T01:30:36.376Z,0
2016-04-12T01:31:49.098Z,0
2016-04-12T01:32:49.116Z,0
2016-04-12T01:33:55.603Z,0
2016-04-12T01:34:55.606Z,0
2016-04-12T01:36:02.109Z,0
2016-04-12T01:36:36.423Z,0
2016-04-12T01:37:36.457Z,0
2016-04-12T01:39:07.773Z,0
2016-04-12T01:39:36.478Z,0
2016-04-12T01:40:36.512Z,0
2016-04-12T01:41:36.531Z,0
2016-04-12T01:42:37.939Z,0
2016-04-12T01:43:36.568Z,0
2016-04-12T01:44:49.304Z,0
2016-04-12T01:45:36.714Z,0
2016-04-12T01:46:55.903Z,0
2016-04-12T01:47:36.656Z,0
2016-04-12T01:48:37.112Z,0
2016-04-12T01:49:36.661Z,0
2016-04-12T01:50:36.695Z,0
2016-04-12T01:51:36.730Z,0
2016-04-12T01:52:36.716Z,0
2016-04-12T01:53:36.750Z,0
2016-04-12T01:54:36.753Z,0
2016-04-12T01:55:36.803Z,0
2016-04-12T01:56:36.791Z,0
2016-04-12T01:57:36.824Z,0
2016-04-12T01:58:43.107Z,0
2016-04-12T01:59:36.830Z,0
2016-04-12T02:00:43.332Z,0
2016-04-12T02:01:36.913Z,0
2016-04-12T02:02:36.963Z,0
2016-04-12T02:03:36.949Z,0
2016-04-12T02:04:43.218Z,0
2016-04-12T02:05:36.954Z,0
2016-04-12T02:06:36.988Z,0
2016-04-12T02:07:37.007Z,0
2016-04-12T02:08:43.275Z,0
2016-04-12T02:09:43.278Z,0
2016-04-12T02:10:37.045Z,0
2016-04-12T02:11:49.642Z,0
2016-04-12T02:12:37.098Z,0
2016-04-12T02:13:56.445Z,0
2016-04-12T02:14:37.134Z,0
2016-04-12T02:15:37.137Z,0
2016-04-12T02:16:37.156Z,0
2016-04-12T02:17:37.190Z,0
2016-04-12T02:18:49.959Z,0
2016-04-12T02:19:37.211Z,0
2016-04-12T02:20:56.433Z,0
2016-04-12T02:21:37.279Z,0
2016-04-12T02:23:08.578Z,0
2016-04-12T02:23:38.691Z,0
2016-04-12T02:24:37.366Z,0
2016-04-12T02:25:40.352Z,0
2016-04-12T02:26:43.605Z,0
2016-04-12T02:27:37.341Z,0
2016-04-12T02:28:37.438Z,0
2016-04-12T02:29:43.754Z,0
2016-04-12T02:30:37.412Z,0
2016-04-12T02:31:50.180Z,0
2016-04-12T02:32:43.715Z,0
2016-04-12T02:33:56.671Z,0
2016-04-12T02:34:37.471Z,0
2016-04-12T02:35:37.521Z,0
2016-04-12T02:36:37.538Z,0
2016-04-12T02:37:37.557Z,0
2016-04-12T02:38:37.543Z,0
2016-04-12T02:39:50.374Z,0
2016-04-12T02:40:50.299Z,0
2016-04-12T02:41:37.692Z,0
2016-04-12T02:42:37.617Z,0
2016-04-12T02:43:37.635Z,0
2016-04-12T02:44:38.466Z,0
2016-04-12T02:45:38.468Z,0
2016-04-12T02:46:37.675Z,0
2016-04-12T02:47:50.458Z,0
2016-04-12T02:48:37.867Z,0
2016-04-12T02:49:50.479Z,0
2016-04-12T02:50:39.185Z,0
2016-04-12T02:52:03.453Z,0
2016-04-12T02:52:40.831Z,0
2016-04-12T02:54:47.414Z,0
2016-04-12T02:55:47.402Z,0
2016-04-12T02:56:53.732Z,0
2016-04-12T02:57:47.422Z,0
2016-04-12T02:59:00.284Z,0
2016-04-12T02:59:47.490Z,0
2016-04-12T03:00:47.524Z,0
2016-04-12T03:01:47.543Z,0
2016-04-12T03:02:47.529Z,0
2016-04-12T03:03:47.548Z,0
2016-04-12T03:04:47.566Z,0
2016-04-12T03:05:47.615Z,0
2016-04-12T03:07:00.368Z,0
2016-04-12T03:07:47.621Z,0
2016-04-12T03:09:06.842Z,0
2016-04-12T03:09:54.532Z,0
2016-04-12T03:10:47.692Z,0
2016-04-12T03:11:47.726Z,0
2016-04-12T03:12:47.745Z,0
2016-04-12T03:13:47.731Z,0
2016-04-12T03:14:47.734Z,0
2016-04-12T03:15:48.377Z,0
2016-04-12T03:16:47.755Z,0
2016-04-12T03:17:47.820Z,0
2016-04-12T03:19:00.541Z,0
2016-04-12T03:19:47.826Z,0
2016-04-12T03:20:47.845Z,0
2016-04-12T03:22:00.581Z,0
2016-04-12T03:22:47.975Z,0
2016-04-12T03:23:47.914Z,0
2016-04-12T03:24:48.027Z,0
2016-04-12T03:25:47.951Z,0
2016-04-12T03:26:48.063Z,0
2016-04-12T03:27:48.566Z,0
2016-04-12T03:28:54.240Z,0
2016-04-12T03:29:48.602Z,0
2016-04-12T03:31:00.746Z,0
2016-04-12T03:31:49.466Z,0
2016-04-12T03:33:57.597Z,0
2016-04-12T03:34:57.632Z,0
2016-04-12T03:36:03.962Z,0
2016-04-12T03:37:04.527Z,0
2016-04-12T03:38:04.608Z,0
2016-04-12T03:38:57.705Z,0
2016-04-12T03:39:57.724Z,0
2016-04-12T03:41:03.241Z,0
2016-04-12T03:42:04.119Z,0
2016-04-12T03:43:10.512Z,0
2016-04-12T03:44:10.546Z,0
2016-04-12T03:45:10.565Z,0
2016-04-12T03:46:23.504Z,0
2016-04-12T03:47:10.664Z,0
2016-04-12T03:47:57.931Z,0
2016-04-12T03:50:00.969Z,0
2016-04-12T03:51:01.002Z,0
2016-04-12T03:52:13.724Z,0
2016-04-12T03:53:07.477Z,0
2016-04-12T03:54:26.683Z,0
2016-04-12T03:55:01.826Z,0
2016-04-12T03:57:03.675Z,0
2016-04-12T03:57:16.097Z,0
2016-04-12T03:58:28.865Z,0
2016-04-12T03:59:22.462Z,0
2016-04-12T04:00:16.746Z,0
2016-04-12T04:01:35.360Z,4
2016-04-12T04:02:16.157Z,4
2016-04-12T04:04:25.678Z,0
2016-04-12T04:05:38.512Z,4
2016-04-12T04:06:38.529Z,4
2016-04-12T04:07:25.810Z,4
2016-04-12T04:08:45.021Z,4
2016-04-12T04:09:28.880Z,8
2016-04-12T04:10:28.913Z,8
2016-04-12T04:11:41.684Z,8
2016-04-12T04:12:41.687Z,12
2016-04-12T04:13:41.690Z,12
2016-04-12T04:14:41.723Z,16
2016-04-12T04:16:32.085Z,16
2016-04-12T04:17:51.482Z,16
2016-04-12T04:18:32.295Z,16
2016-04-12T04:19:32.156Z,16
2016-04-12T04:20:44.895Z,20
2016-04-12T04:21:44.914Z,20
2016-04-12T04:22:51.495Z,24
2016-04-12T04:23:51.419Z,24
2016-04-12T04:25:03.578Z,28
2016-04-12T04:25:41.831Z,28
2016-04-12T04:27:13.147Z,32
2016-04-12T04:27:44.930Z,36
2016-04-12T04:29:16.245Z,40
2016-04-12T04:29:57.686Z,40
2016-04-12T04:30:44.969Z,48
2016-04-12T04:32:04.175Z,52
2016-04-12T04:32:44.928Z,60
2016-04-12T04:34:10.696Z,68
2016-04-12T04:34:57.777Z,72
2016-04-12T04:37:00.877Z,96
2016-04-12T04:38:00.863Z,104
2016-04-12T04:39:00.866Z,116
2016-04-12T04:40:00.900Z,128
2016-04-12T04:41:07.621Z,140
2016-04-12T04:42:13.655Z,156
2016-04-12T04:43:13.924Z,176
2016-04-12T04:44:13.707Z,196
2016-04-12T04:45:26.648Z,244
2016-04-12T04:47:33.090Z,280
2016-04-12T04:49:35.424Z,288
2016-04-12T04:49:47.974Z,288
2016-04-12T04:50:48.023Z,300
2016-04-12T04:51:48.792Z,316
2016-04-12T04:52:48.638Z,332
2016-04-12T04:53:48.063Z,356
2016-04-12T04:55:00.800Z,384
2016-04-12T04:55:48.787Z,412
2016-04-12T04:57:13.789Z,464
2016-04-12T04:57:48.104Z,484
2016-04-12T04:59:19.592Z,536
2016-04-12T04:59:48.157Z,552
2016-04-12T05:00:48.238Z,588
2016-04-12T05:01:48.178Z,628
2016-04-12T05:02:48.274Z,656
2016-04-12T05:04:00.964Z,696
2016-04-12T05:05:01.014Z,736
2016-04-12T05:06:07.455Z,780
2016-04-12T05:07:07.379Z,800
2016-04-12T05:09:29.010Z,784
2016-04-12T05:10:16.278Z,776
2016-04-12T05:12:45.171Z,884
2016-04-12T05:13:32.265Z,968
2016-04-12T05:15:17.925Z,1204
2016-04-12T05:15:49.757Z,1264
2016-04-12T05:17:01.853Z,1344
2016-04-12T05:17:36.837Z,1360
2016-04-12T05:18:30.575Z,1360
2016-04-12T05:19:46.455Z,1356
2016-04-12T05:20:36.892Z,1348
2016-04-12T05:21:56.397Z,1328
2016-04-12T05:22:30.632Z,1312
2016-04-12T05:24:01.966Z,1316
2016-04-12T05:24:40.234Z,1340
2016-04-12T05:26:11.534Z,1408
2016-04-12T05:27:21.239Z,1428
2016-04-12T05:29:36.401Z,1340
2016-04-12T05:30:27.357Z,1324
2016-04-12T05:32:11.612Z,1380
2016-04-12T05:32:36.909Z,1420
2016-04-12T05:34:26.804Z,1632
2016-04-12T05:35:05.058Z,1716
2016-04-12T05:35:39.388Z,1780
2016-04-12T05:37:39.410Z,1932
2016-04-12T05:38:39.443Z,1924
2016-04-12T05:39:39.446Z,1896
2016-04-12T05:40:39.480Z,1916
2016-04-12T05:41:52.248Z,2052
2016-04-12T05:42:45.782Z,2196
2016-04-12T05:43:58.706Z,2348
2016-04-12T05:44:52.273Z,2336
2016-04-12T05:46:05.337Z,2180
2016-04-12T05:48:20.358Z,1960
2016-04-12T05:49:14.048Z,1948
2016-04-12T05:50:26.817Z,2020
2016-04-12T05:51:26.819Z,2128
2016-04-12T05:53:42.859Z,2320
2016-04-12T05:55:45.489Z,2380
2016-04-12T05:56:17.239Z,2416
2016-04-12T05:56:58.055Z,2480
2016-04-12T05:59:52.547Z,2500
2016-04-12T06:00:07.688Z,2436
2016-04-12T06:01:39.021Z,2276
2016-04-12T06:02:17.255Z,2284
2016-04-12T06:04:30.027Z,2748
2016-04-12T06:05:17.294Z,2944
2016-04-12T06:06:36.531Z,3128
2016-04-12T06:07:24.222Z,3136
2016-04-12T06:08:42.899Z,3112
2016-04-12T06:10:14.371Z,3212
2016-04-12T06:10:52.701Z,3320
2016-04-12T06:12:55.237Z,3684
2016-04-12T06:13:33.550Z,3756
2016-04-12T06:14:07.865Z,3800
2016-04-12T06:16:10.559Z,3900
2016-04-12T06:16:42.342Z,3904
2016-04-12T06:17:23.155Z,3956
2016-04-12T06:19:20.770Z,4272
2016-04-12T06:20:18.803Z,4400
2016-04-12T06:20:46.775Z,4480
2016-04-12T06:24:14.845Z,4812
2016-04-12T06:24:43.723Z,4908
2016-04-12T06:26:56.416Z,5144
2016-04-12T06:27:44.246Z,4992
2016-04-12T06:29:02.906Z,4648
2016-04-12T06:29:43.658Z,4504
2016-04-12T06:31:35.068Z,4372
2016-04-12T06:31:47.664Z,4380
2016-04-12T06:33:38.182Z,4432
2016-04-12T06:33:50.794Z,4432
2016-04-12T06:34:50.782Z,4360
2016-04-12T06:35:50.988Z,4244
2016-04-12T06:36:50.802Z,4200
2016-04-12T06:38:03.555Z,4388
2016-04-12T06:38:50.824Z,4632
2016-04-12T06:41:19.720Z,5056
2016-04-12T06:42:47.646Z,5216
2016-04-12T06:43:03.615Z,5264
2016-04-12T06:44:22.915Z,5588
2016-04-12T06:45:16.418Z,5848
2016-04-12T06:46:22.873Z,6080
2016-04-12T06:47:23.173Z,6308
2016-04-12T06:48:07.176Z,6396
2016-04-12T06:49:26.272Z,6676
2016-04-12T06:50:22.900Z,6928
2016-04-12T06:51:10.153Z,7156
2016-04-12T06:52:10.171Z,7500
2016-04-12T06:53:10.298Z,7848
2016-04-12T06:54:10.239Z,7996
2016-04-12T06:55:23.008Z,7604
2016-04-12T06:56:16.526Z,7524
2016-04-12T06:57:10.341Z,7552
2016-04-12T06:58:29.562Z,7428
2016-04-12T06:59:13.439Z,7260
2016-04-12T07:01:10.444Z,6852
2016-04-12T07:01:23.038Z,6860
2016-04-12T07:02:23.026Z,7084
2016-04-12T07:03:23.638Z,7568
2016-04-12T07:04:23.063Z,7928
2016-04-12T07:05:42.302Z,8452
2016-04-12T07:06:23.240Z,8744
2016-04-12T07:07:23.133Z,9460
2016-04-12T07:08:24.651Z,10188
2016-04-12T07:09:23.170Z,10900
2016-04-12T07:10:24.719Z,11632
2016-04-12T07:11:23.206Z,12080
2016-04-12T07:12:36.006Z,19584
2016-04-12T07:13:35.993Z,11484
2016-04-12T07:14:36.059Z,11284
2016-04-12T07:16:26.517Z,25344
2016-04-12T07:17:26.535Z,32384
2016-04-12T07:18:26.553Z,33120
2016-04-12T07:19:32.853Z,33280
2016-04-12T07:20:26.606Z,32736
2016-04-12T07:21:26.624Z,33056
2016-04-12T07:22:39.392Z,33536
2016-04-12T07:23:27.348Z,33984
2016-04-12T07:24:26.803Z,33888
2016-04-12T07:25:39.463Z,34304
2016-04-12T07:26:27.356Z,34336
2016-04-12T07:27:26.750Z,35168
2016-04-12T07:28:26.830Z,35904
2016-04-12T07:29:26.817Z,36192
2016-04-12T07:30:33.070Z,35296
2016-04-12T07:31:26.838Z,36512
2016-04-12T07:32:39.716Z,38880
2016-04-12T07:33:26.922Z,30368
2016-04-12T07:34:26.909Z,24256
2016-04-12T07:35:33.224Z,16032
2016-04-12T07:36:33.242Z,17280
2016-04-12T07:37:39.730Z,25120
2016-04-12T07:38:27.123Z,26656
2016-04-12T07:39:27.047Z,19296
2016-04-12T07:40:27.082Z,35904
2016-04-12T07:41:33.365Z,26976
2016-04-12T07:42:33.418Z,24480
2016-04-12T07:43:46.535Z,38624
2016-04-12T07:44:28.676Z,40160
2016-04-12T07:46:24.372Z,35072
2016-04-12T07:46:36.934Z,28736
2016-04-12T07:47:37.045Z,36288
2016-04-12T07:48:43.349Z,40032
2016-04-12T07:49:37.084Z,36544
2016-04-12T07:50:49.875Z,19520
2016-04-12T07:51:37.187Z,13244
2016-04-12T07:52:50.090Z,12364
2016-04-12T07:53:37.262Z,11808
2016-04-12T07:54:37.301Z,11596
2016-04-12T07:55:37.326Z,11400
2016-04-12T07:56:37.351Z,11212
2016-04-12T07:57:37.375Z,11084
2016-04-12T07:58:43.682Z,11036
2016-04-12T07:59:37.479Z,11040
2016-04-12T08:00:50.238Z,11048
2016-04-12T08:01:37.472Z,11016
2016-04-12T08:02:37.477Z,10980
2016-04-12T08:03:37.544Z,10984
2016-04-12T08:04:37.751Z,11040
2016-04-12T08:05:37.692Z,11052
2016-04-12T08:06:43.886Z,10996
2016-04-12T08:07:37.745Z,10920
2016-04-12T08:08:37.675Z,10796
2016-04-12T08:09:50.555Z,10764
2016-04-12T08:10:37.680Z,10816
2016-04-12T08:11:50.515Z,10876
2016-04-12T08:12:44.033Z,10844
2016-04-12T08:13:56.963Z,10792
2016-04-12T08:14:37.775Z,10760
2016-04-12T08:16:09.109Z,10764
2016-04-12T08:16:47.378Z,10788
2016-04-12T08:18:44.382Z,10700
2016-04-12T08:18:56.929Z,10632
2016-04-12T08:21:31.435Z,10520
2016-04-12T08:22:12.235Z,10468
2016-04-12T08:23:18.534Z,10488
2016-04-12T08:24:18.538Z,10484
2016-04-12T08:25:12.290Z,10492
2016-04-12T08:26:18.854Z,10512
2016-04-12T08:27:12.966Z,10540
2016-04-12T08:28:31.563Z,10632
2016-04-12T08:29:13.801Z,10680
2016-04-12T08:30:31.616Z,10748
2016-04-12T08:31:18.712Z,10776
2016-04-12T08:32:31.668Z,10816
2016-04-12T08:33:13.982Z,10812
2016-04-12T08:34:31.704Z,10736
2016-04-12T08:35:25.363Z,10724
2016-04-12T08:37:03.900Z,10780
2016-04-12T08:37:42.134Z,10768
2016-04-12T08:38:42.168Z,10704
2016-04-12T08:39:47.284Z,10660
2016-04-12T08:40:16.502Z,10640
2016-04-12T08:42:29.304Z,10644
2016-04-12T08:43:16.604Z,10648
2016-04-12T08:44:35.809Z,10588
2016-04-12T08:45:16.640Z,10532
2016-04-12T08:47:26.458Z,10240
2016-04-12T08:48:26.695Z,10384
2016-04-12T08:49:32.730Z,10480
2016-04-12T08:50:32.810Z,10584
2016-04-12T08:51:39.219Z,10652
2016-04-12T08:52:33.019Z,10736
2016-04-12T08:53:45.743Z,10804
2016-04-12T08:54:39.352Z,11044
2016-04-12T08:55:26.605Z,11176
2016-04-12T08:56:26.624Z,11260
2016-04-12T08:58:42.004Z,11384
2016-04-12T08:59:41.944Z,11360
2016-04-12T09:00:42.180Z,11244
2016-04-12T09:01:41.980Z,11036
2016-04-12T09:02:42.811Z,10888
2016-04-12T09:03:54.770Z,10824
2016-04-12T09:04:54.818Z,10800
2016-04-12T09:06:01.259Z,10784
2016-04-12T09:06:45.137Z,10768
2016-04-12T09:07:45.234Z,10736
2016-04-12T09:08:51.897Z,10680
2016-04-12T09:09:45.259Z,10564
2016-04-12T09:11:04.450Z,10504
2016-04-12T09:11:45.859Z,10548
2016-04-12T09:13:10.986Z,10724
2016-04-12T09:13:54.895Z,10868
2016-04-12T09:15:58.135Z,10812
2016-04-12T09:16:10.775Z,10776
2016-04-12T09:17:10.716Z,10684
2016-04-12T09:18:23.437Z,10492
2016-04-12T09:19:10.893Z,10396
2016-04-12T09:20:23.536Z,10328
2016-04-12T09:21:23.632Z,10240
2016-04-12T09:22:17.104Z,10184
2016-04-12T09:23:30.122Z,10108
2016-04-12T09:24:30.094Z,9948
2016-04-12T09:25:12.377Z,9896
2016-04-12T09:26:10.912Z,9856
2016-04-12T09:28:13.557Z,9932
2016-04-12T09:28:51.826Z,10000
2016-04-12T09:29:26.154Z,10024
2016-04-12T09:30:26.173Z,10036
2016-04-12T09:31:26.222Z,10016
2016-04-12T09:32:26.224Z,10092
2016-04-12T09:33:27.009Z,10196
2016-04-12T09:34:38.996Z,10160
2016-04-12T09:35:26.358Z,10136
2016-04-12T09:36:45.520Z,10392
2016-04-12T09:37:26.942Z,10288
2016-04-12T09:38:57.665Z,10024
2016-04-12T09:39:39.150Z,10048
2016-04-12T09:40:26.403Z,10080
2016-04-12T09:41:26.421Z,10148
2016-04-12T09:42:26.470Z,10116
2016-04-12T09:43:26.520Z,10148
2016-04-12T09:44:27.006Z,10220
2016-04-12T09:45:25.900Z,10300
2016-04-12T09:46:39.356Z,10212
2016-04-12T09:47:26.687Z,10232
2016-04-12T09:48:45.927Z,10136
2016-04-12T09:49:26.974Z,10160
2016-04-12T09:50:52.322Z,10232
2016-04-12T09:51:26.760Z,10328
2016-04-12T09:52:57.999Z,10412
2016-04-12T09:53:36.234Z,10388
2016-04-12T09:55:07.552Z,10344
2016-04-12T09:55:36.271Z,10344
2016-04-12T09:57:07.588Z,10300
2016-04-12T09:57:49.279Z,10248
2016-04-12T09:58:36.341Z,10624
2016-04-12T09:59:55.597Z,10560
2016-04-12T10:00:36.425Z,10840
2016-04-12T10:02:34.055Z,10836
2016-04-12T10:02:46.729Z,10848
2016-04-12T10:03:46.670Z,11056
2016-04-12T10:04:46.892Z,11268
2016-04-12T10:05:59.456Z,11808
2016-04-12T10:06:53.085Z,11628
2016-04-12T10:07:59.603Z,11376
2016-04-12T10:08:46.824Z,11360
2016-04-12T10:10:06.014Z,10804
2016-04-12T10:10:52.923Z,10424
2016-04-12T10:12:12.629Z,11340
2016-04-12T10:12:50.850Z,11932
2016-04-12T10:14:53.543Z,13476
2016-04-12T10:15:06.121Z,13464
2016-04-12T10:16:06.140Z,13180
2016-04-12T10:17:06.767Z,12688
2016-04-12T10:18:06.333Z,11812
2016-04-12T10:19:13.132Z,11460
2016-04-12T10:20:06.353Z,11652
2016-04-12T10:21:07.700Z,11996
2016-04-12T10:22:19.047Z,12252
2016-04-12T10:23:06.316Z,12468
2016-04-12T10:24:06.349Z,13288
2016-04-12T10:25:19.116Z,14840
2016-04-12T10:26:19.135Z,16064
2016-04-12T10:27:06.419Z,17088
2016-04-12T10:28:25.641Z,19552
2016-04-12T10:29:06.456Z,20192
2016-04-12T10:30:37.787Z,20064
2016-04-12T10:31:12.774Z,19712
2016-04-12T10:32:06.526Z,18432
2016-04-12T10:33:12.842Z,16832
2016-04-12T10:34:06.579Z,15424
2016-04-12T10:35:19.362Z,14452
2016-04-12T10:36:08.601Z,13672
2016-04-12T10:37:32.196Z,12496
2016-04-12T10:38:19.418Z,12088
2016-04-12T10:39:06.701Z,11772
2016-04-12T10:40:26.064Z,11380
2016-04-12T10:41:06.753Z,11324
2016-04-12T10:42:58.135Z,11464
2016-04-12T10:43:10.713Z,11648
2016-04-12T10:44:10.731Z,12124
2016-04-12T10:45:10.781Z,12664
2016-04-12T10:47:13.395Z,13676
2016-04-12T10:47:25.833Z,13756
2016-04-12T10:48:25.992Z,13980
2016-04-12T10:49:32.292Z,13804
2016-04-12T10:50:32.309Z,13536
2016-04-12T10:51:27.468Z,13184
2016-04-12T10:52:38.831Z,12636
2016-04-12T10:53:29.146Z,12268
2016-04-12T10:54:27.555Z,12104
2016-04-12T10:55:38.902Z,12112
2016-04-12T10:56:26.263Z,12232
2016-04-12T10:57:45.219Z,12392
2016-04-12T10:58:27.112Z,12380
2016-04-12T10:59:51.993Z,11980
2016-04-12T11:00:26.305Z,11616
2016-04-12T11:01:26.463Z,10916
2016-04-12T11:02:26.373Z,10296
2016-04-12T11:03:39.126Z,9508
2016-04-12T11:04:26.393Z,9020
2016-04-12T11:05:51.384Z,8196
2016-04-12T11:06:39.196Z,7748
2016-04-12T11:07:26.526Z,7328
2016-04-12T11:08:26.514Z,6900
2016-04-12T11:09:27.143Z,6608
2016-04-12T11:10:26.551Z,6384
2016-04-12T11:11:34.272Z,6340
2016-04-12T11:12:26.618Z,6508
2016-04-12T11:13:39.370Z,6944
2016-04-12T11:14:26.749Z,7280
2016-04-12T11:15:45.892Z,7336
2016-04-12T11:16:33.192Z,7076
2016-04-12T11:17:27.335Z,6820
2016-04-12T11:18:33.259Z,6780
2016-04-12T11:19:39.528Z,7124
2016-04-12T11:20:26.858Z,7200
2016-04-12T11:21:26.814Z,7064
2016-04-12T11:22:26.864Z,6860
2016-04-12T11:23:39.648Z,6848
2016-04-12T11:24:27.105Z,6916
2016-04-12T11:26:42.781Z,7076
2016-04-12T11:27:49.255Z,7412
2016-04-12T11:28:30.130Z,7680
2016-04-12T11:29:49.183Z,8344
2016-04-12T11:30:30.105Z,8868
2016-04-12T11:31:30.249Z,9764
2016-04-12T11:32:30.218Z,10656
2016-04-12T11:33:42.972Z,11496
2016-04-12T11:34:30.257Z,12020
2016-04-12T11:35:30.274Z,13156
2016-04-12T11:36:30.262Z,14748
2016-04-12T11:37:43.045Z,16640
2016-04-12T11:38:36.579Z,17824
2016-04-12T11:39:30.362Z,18784
2016-04-12T11:40:30.365Z,19424
2016-04-12T11:41:30.400Z,19264
2016-04-12T11:42:30.402Z,18368
2016-04-12T11:43:43.201Z,17120
2016-04-12T11:44:30.487Z,16224
2016-04-12T11:45:30.645Z,14972
2016-04-12T11:46:30.538Z,14456
2016-04-12T11:47:43.322Z,13792
2016-04-12T11:48:31.200Z,13544
2016-04-12T11:49:43.343Z,13452
2016-04-12T11:50:30.611Z,13624
2016-04-12T11:51:30.958Z,13948
2016-04-12T11:52:36.944Z,14624
2016-04-12T11:53:31.432Z,15004
2016-04-12T11:54:43.481Z,14920
2016-04-12T11:55:30.938Z,14764
2016-04-12T11:56:50.005Z,14308
2016-04-12T11:57:30.849Z,13816
2016-04-12T11:59:33.449Z,12744
2016-04-12T11:59:46.042Z,12644
2016-04-12T12:00:46.030Z,12388
2016-04-12T12:01:46.063Z,12520
2016-04-12T12:02:46.113Z,12776
2016-04-12T12:03:58.852Z,13360
2016-04-12T12:04:46.149Z,13380
2016-04-12T12:06:05.435Z,13048
2016-04-12T12:06:46.248Z,12672
2016-04-12T12:09:01.475Z,11716
2016-04-12T12:10:01.509Z,11320
2016-04-12T12:11:01.370Z,11064
2016-04-12T12:12:14.358Z,11044
2016-04-12T12:13:07.862Z,11096
2016-04-12T12:14:20.817Z,11272
2016-04-12T12:15:20.819Z,11668
2016-04-12T12:16:32.947Z,12084
2016-04-12T12:17:30.184Z,12272
2016-04-12T12:18:42.515Z,11812
2016-04-12T12:19:23.924Z,11508
2016-04-12T12:21:27.086Z,10956
2016-04-12T12:23:23.466Z,10428
2016-04-12T12:23:36.059Z,10368
2016-04-12T12:24:36.109Z,10168
2016-04-12T12:25:42.362Z,9984
2016-04-12T12:26:42.427Z,9756
2016-04-12T12:27:48.883Z,9516
2016-04-12T12:30:05.032Z,9576
2016-04-12T12:31:04.972Z,9888
2016-04-12T12:32:11.490Z,10416
2016-04-12T12:33:11.508Z,10780
2016-04-12T12:34:17.699Z,11384
2016-04-12T12:35:24.295Z,12172
2016-04-12T12:36:05.094Z,12668
2016-04-12T12:38:02.100Z,14200
2016-04-12T12:38:14.679Z,14360
2016-04-12T12:39:33.931Z,15300
2016-04-12T12:40:15.418Z,15760
2016-04-12T12:42:25.767Z,16864
2016-04-12T12:44:16.304Z,16960
2016-04-12T12:44:47.945Z,16928
2016-04-12T12:45:48.119Z,16768
2016-04-12T12:46:29.700Z,16640
2016-04-12T12:48:38.564Z,16032
2016-04-12T12:49:57.819Z,15528
2016-04-12T12:51:07.417Z,15216
2016-04-12T12:51:41.776Z,15076
2016-04-12T12:53:13.061Z,15168
2016-04-12T12:53:41.764Z,15272
2016-04-12T12:54:41.830Z,15472
2016-04-12T12:55:54.586Z,15592
2016-04-12T12:56:54.604Z,15456
2016-04-12T12:57:41.979Z,15172
2016-04-12T12:58:41.919Z,14732
2016-04-12T12:59:48.219Z,14184
2016-04-12T13:00:42.096Z,13816
2016-04-12T13:01:42.443Z,13348
2016-04-12T13:02:55.166Z,12720
2016-04-12T13:03:48.291Z,12292
2016-04-12T13:05:45.126Z,11776
2016-04-12T13:07:10.881Z,11640
2016-04-12T13:07:51.459Z,11576
2016-04-12T13:09:16.545Z,11476
2016-04-12T13:09:45.263Z,11432
2016-04-12T13:11:47.879Z,11408
2016-04-12T13:12:00.476Z,11428
2016-04-12T13:13:00.479Z,11444
2016-04-12T13:14:01.965Z,11480
2016-04-12T13:15:00.671Z,11560
2016-04-12T13:16:00.579Z,11708
2016-04-12T13:17:00.646Z,11800
2016-04-12T13:18:00.648Z,11820
2016-04-12T13:19:00.651Z,11972
2016-04-12T13:20:00.654Z,12324
2016-04-12T13:21:00.719Z,12800
2016-04-12T13:22:13.518Z,13428
2016-04-12T13:23:00.708Z,13840
2016-04-12T13:24:19.977Z,14448
2016-04-12T13:25:13.557Z,14684
2016-04-12T13:26:32.435Z,14836
2016-04-12T13:27:04.250Z,14832
2016-04-12T13:28:35.597Z,14916
2016-04-12T13:29:17.114Z,14932
2016-04-12T13:30:04.321Z,15000
2016-04-12T13:32:33.342Z,15244
2016-04-12T13:33:42.907Z,15312
2016-04-12T13:34:16.394Z,15324
2016-04-12T13:35:48.599Z,14888
2016-04-12T13:36:43.119Z,14628
2016-04-12T13:37:17.355Z,14500
2016-04-12T13:38:48.686Z,14624
2016-04-12T13:39:23.688Z,14668
2016-04-12T13:40:17.426Z,14680
2016-04-12T13:41:17.444Z,14760
2016-04-12T13:42:30.196Z,14876
2016-04-12T13:43:17.761Z,14520
2016-04-12T13:44:43.622Z,13652
2016-04-12T13:45:18.953Z,13428
2016-04-12T13:47:20.250Z,12400
2016-04-12T13:47:32.766Z,12264
2016-04-12T13:48:32.721Z,11788
2016-04-12T13:49:33.616Z,11516
2016-04-12T13:50:34.211Z,11204
2016-04-12T13:51:45.543Z,10992
2016-04-12T13:52:52.155Z,10412
2016-04-12T13:53:32.938Z,10240
2016-04-12T13:55:35.507Z,10084
2016-04-12T13:55:48.085Z,10000
2016-04-12T13:56:48.337Z,9372
2016-04-12T13:57:48.277Z,8572
2016-04-12T13:59:00.923Z,7720
2016-04-12T13:59:48.220Z,7440
2016-04-12T14:01:07.663Z,7272
2016-04-12T14:01:48.320Z,7348
2016-04-12T14:04:29.187Z,7892
2016-04-12T14:05:03.502Z,8028
2016-04-12T14:07:00.710Z,8752
2016-04-12T14:07:13.350Z,8768
2016-04-12T14:08:44.619Z,9072
2016-04-12T14:09:13.325Z,9188
2016-04-12T14:11:13.409Z,9040
2016-04-12T14:12:13.412Z,9068
2016-04-12T14:13:19.727Z,9200
2016-04-12T14:14:13.464Z,9604
2016-04-12T14:15:13.482Z,9800
2016-04-12T14:16:13.516Z,9824
2016-04-12T14:17:13.549Z,9648
2016-04-12T14:18:13.552Z,9524
2016-04-12T14:19:13.618Z,9632
2016-04-12T14:20:19.901Z,9888
2016-04-12T14:21:13.670Z,10304
2016-04-12T14:22:26.438Z,10676
2016-04-12T14:23:13.691Z,10652
2016-04-12T14:24:32.725Z,10404